createdAt,value
2018-04-27T00:02:05.895Z,87.44
2018-04-27T00:04:34.928Z,87.02
2018-04-27T00:07:04.006Z,86.96
2018-04-27T00:09:33.040Z,87.40
2018-04-27T00:12:02.336Z,86.82
2018-04-27T00:14:31.355Z,88.29
2018-04-27T00:17:00.404Z,89.15
2018-04-27T00:19:29.543Z,86.93
2018-04-27T00:21:58.618Z,87.81
2018-04-27T00:24:28.658Z,88.48
2018-04-27T00:26:57.680Z,89.49
2018-04-27T00:29:26.847Z,88.35
2018-04-27T00:31:55.913Z,89.78
2018-04-27T00:34:24.960Z,88.50
2018-04-27T00:36:53.965Z,88.84
2018-04-27T00:39:24.119Z,88.31
2018-04-27T00:41:53.426Z,89.35
2018-04-27T00:44:22.460Z,90.56
2018-04-27T00:46:51.545Z,91.48
2018-04-27T00:49:21.588Z,90.58
2018-04-27T00:51:50.655Z,90.24
2018-04-27T00:54:19.706Z,90.24
2018-04-27T00:56:48.989Z,90.59
2018-04-27T01:01:53.803Z,89.39
2018-04-27T01:04:22.945Z,90.63
2018-04-27T01:06:51.983Z,90.03
2018-04-27T01:11:56.714Z,92.02
2018-04-27T01:14:25.761Z,92.18
2018-04-27T01:16:54.834Z,92.22
2018-04-27T01:19:23.873Z,92.25
2018-04-27T01:21:52.903Z,91.62
2018-04-27T01:24:21.933Z,92.93
2018-04-27T01:26:50.981Z,91.05
2018-04-27T01:29:20.041Z,90.75
2018-04-27T01:31:50.003Z,91.24
2018-04-27T01:34:20.028Z,91.90
2018-04-27T01:36:50.034Z,92.14
2018-04-27T01:39:20.202Z,92.87
2018-04-27T01:41:49.338Z,93.69
2018-04-27T01:44:18.423Z,94.66
2018-04-27T01:46:47.468Z,93.73
2018-04-27T01:49:16.571Z,93.41
2018-04-27T01:51:45.616Z,91.56
2018-04-27T01:54:14.661Z,91.22
2018-04-27T01:56:46.716Z,91.29
2018-04-27T02:01:51.548Z,92.04
2018-04-27T02:04:21.590Z,92.86
2018-04-27T02:06:50.633Z,93.34
2018-04-27T02:09:19.683Z,94.56
2018-04-27T02:14:24.498Z,93.62
2018-04-27T02:16:53.549Z,93.48
2018-04-27T02:19:23.548Z,93.69
2018-04-27T02:21:53.647Z,93.16
2018-04-27T02:24:22.711Z,92.05
2018-04-27T02:26:51.772Z,91.64
2018-04-27T02:29:20.802Z,92.54
2018-04-27T02:31:49.920Z,92.87
2018-04-27T02:34:19.149Z,92.66
2018-04-27T02:36:48.184Z,91.96
2018-04-27T02:39:17.290Z,91.86
2018-04-27T02:41:46.307Z,92.84
2018-04-27T02:44:16.263Z,92.68
2018-04-27T02:46:46.325Z,93.33
2018-04-27T02:49:15.527Z,92.80
2018-04-27T02:51:44.570Z,92.37
2018-04-27T02:54:13.634Z,92.36
2018-04-27T02:56:42.703Z,91.86
2018-04-27T02:59:11.770Z,91.85
2018-04-27T03:01:40.819Z,92.12
2018-04-27T03:04:09.874Z,93.35
2018-04-27T03:06:38.993Z,93.14
2018-04-27T03:09:08.035Z,92.43
2018-04-27T03:11:37.096Z,91.91
2018-04-27T03:14:06.141Z,91.89
2018-04-27T03:16:37.264Z,91.71
2018-04-27T03:19:06.314Z,91.82
2018-04-27T03:21:36.289Z,92.23
2018-04-27T03:24:05.321Z,92.74
2018-04-27T03:26:35.319Z,92.34
2018-04-27T03:29:04.509Z,92.04
2018-04-27T03:31:34.512Z,91.62
2018-04-27T03:34:03.561Z,91.83
2018-04-27T03:36:32.638Z,91.72
2018-04-27T03:39:01.827Z,91.76
2018-04-27T03:41:30.844Z,92.00
2018-04-27T03:43:59.877Z,91.90
2018-04-27T03:46:28.921Z,90.49
2018-04-27T03:48:57.962Z,91.21
2018-04-27T03:51:27.177Z,91.96
2018-04-27T03:53:56.401Z,92.14
2018-04-27T03:56:25.535Z,91.81
2018-04-27T03:58:54.680Z,92.40
2018-04-27T04:01:41.637Z,92.17
2018-04-27T04:04:28.446Z,92.05
2018-04-27T04:06:57.490Z,91.78
2018-04-27T04:09:26.643Z,91.87
2018-04-27T04:11:55.716Z,92.57
2018-04-27T04:14:24.921Z,90.73
2018-04-27T04:16:53.984Z,90.00
2018-04-27T04:19:23.338Z,90.33
2018-04-27T04:21:52.389Z,91.34
2018-04-27T04:24:21.438Z,91.53
2018-04-27T04:26:50.728Z,91.74
2018-04-27T04:29:19.709Z,92.40
2018-04-27T04:31:48.766Z,92.08
2018-04-27T04:34:18.758Z,91.89
2018-04-27T04:36:48.242Z,91.31
2018-04-27T04:39:17.725Z,92.03
2018-04-27T04:41:48.061Z,91.72
2018-04-27T04:44:17.113Z,92.03
2018-04-27T04:46:46.669Z,91.50
2018-04-27T04:49:15.741Z,90.55
2018-04-27T04:51:44.795Z,90.45
2018-04-27T04:54:14.158Z,90.31
2018-04-27T04:56:43.200Z,91.01
2018-04-27T04:59:12.725Z,91.99
2018-04-27T05:01:42.393Z,91.46
2018-04-27T05:04:11.512Z,90.43
2018-04-27T05:09:16.306Z,89.57
2018-04-27T05:11:46.310Z,89.47
2018-04-27T05:14:15.341Z,89.39
2018-04-27T05:16:44.902Z,89.34
2018-04-27T05:19:13.943Z,89.52
2018-04-27T05:21:43.033Z,89.84
2018-04-27T05:26:47.797Z,89.57
2018-04-27T05:29:17.362Z,90.07
2018-04-27T05:31:46.390Z,90.51
2018-04-27T05:34:15.579Z,90.46
2018-04-27T05:36:44.669Z,90.33
2018-04-27T05:39:13.708Z,89.67
2018-04-27T05:41:42.808Z,90.09
2018-04-27T05:44:12.172Z,88.42
2018-04-27T05:46:41.213Z,88.17
2018-04-27T05:49:10.269Z,87.55
2018-04-27T05:51:39.316Z,86.83
2018-04-27T05:54:08.361Z,86.57
2018-04-27T05:56:37.449Z,85.76
2018-04-27T05:59:06.486Z,85.61
2018-04-27T06:01:35.522Z,85.41
2018-04-27T06:04:14.477Z,84.62
2018-04-27T06:06:44.039Z,84.37
2018-04-27T06:09:13.050Z,84.03
2018-04-27T06:11:42.691Z,83.46
2018-04-27T06:14:12.064Z,83.51
2018-04-27T06:16:41.536Z,83.02
2018-04-27T06:19:10.588Z,82.93
2018-04-27T06:21:39.654Z,83.16
2018-04-27T06:24:08.761Z,83.45
2018-04-27T06:26:37.794Z,82.91
2018-04-27T06:29:07.565Z,81.05
2018-04-27T06:31:36.611Z,80.41
2018-04-27T06:34:06.584Z,80.47
2018-04-27T06:36:35.632Z,79.06
2018-04-27T06:39:04.899Z,77.95
2018-04-27T06:41:33.954Z,77.36
2018-04-27T06:44:03.008Z,77.36
2018-04-27T06:46:32.049Z,74.50
2018-04-27T06:49:01.085Z,75.17
2018-04-27T06:51:31.991Z,74.73
2018-04-27T06:54:02.704Z,72.77
2018-04-27T06:56:31.795Z,74.23
2018-04-27T06:59:12.466Z,73.50
2018-04-27T07:01:55.436Z,70.84
2018-04-27T07:04:40.158Z,69.87
2018-04-27T07:07:25.429Z,72.13
2018-04-27T07:10:08.695Z,70.07
2018-04-27T07:12:55.182Z,71.30
2018-04-27T07:15:36.751Z,66.75
2018-04-27T07:18:17.949Z,70.00
2018-04-27T07:20:58.997Z,69.24
2018-04-27T07:23:42.346Z,67.67
2018-04-27T07:26:22.969Z,66.15
2018-04-27T07:29:06.707Z,66.80
2018-04-27T07:31:49.574Z,68.23
2018-04-27T07:34:33.179Z,68.42
2018-04-27T07:37:14.672Z,64.72
2018-04-27T07:39:55.738Z,64.69
2018-04-27T07:45:17.222Z,63.58
2018-04-27T07:47:59.401Z,62.57
2018-04-27T07:50:42.445Z,64.09
2018-04-27T07:53:24.668Z,64.84
2018-04-27T07:56:08.424Z,63.37
2018-04-27T07:58:50.210Z,61.53
2018-04-27T08:01:36.201Z,59.07
2018-04-27T08:04:18.488Z,56.64
2018-04-27T08:06:57.366Z,58.93
2018-04-27T08:09:41.648Z,56.96
2018-04-27T08:12:27.504Z,58.29
2018-04-27T08:15:13.606Z,57.96
2018-04-27T08:18:00.559Z,59.09
2018-04-27T08:20:46.070Z,57.38
2018-04-27T08:23:31.787Z,54.64
2018-04-27T08:26:17.908Z,55.08
2018-04-27T08:29:04.380Z,52.65
2018-04-27T08:34:25.103Z,51.31
2018-04-27T08:37:10.759Z,53.83
2018-04-27T08:39:55.859Z,54.06
2018-04-27T08:42:36.985Z,52.42
2018-04-27T08:45:18.624Z,52.91
2018-04-27T08:50:40.354Z,49.80
2018-04-27T08:53:24.334Z,49.67
2018-04-27T08:56:05.694Z,48.63
2018-04-27T09:01:26.207Z,46.13
2018-04-27T09:04:08.916Z,46.25
2018-04-27T09:06:53.740Z,44.14
2018-04-27T09:09:35.582Z,41.87
2018-04-27T09:15:02.560Z,38.48
2018-04-27T09:20:21.138Z,36.64
2018-04-27T09:23:06.869Z,36.76
2018-04-27T09:25:52.915Z,35.83
2018-04-27T09:28:34.678Z,33.03
2018-04-27T09:31:15.366Z,36.44
2018-04-27T09:36:36.304Z,30.75
2018-04-27T09:39:17.920Z,30.98
2018-04-27T09:41:48.330Z,30.74
2018-04-27T09:44:17.379Z,33.44
2018-04-27T09:46:47.433Z,31.79
2018-04-27T09:49:16.477Z,29.15
2018-04-27T09:51:46.105Z,30.16
2018-04-27T09:54:15.127Z,32.18
2018-04-27T09:59:20.818Z,29.76
2018-04-27T10:01:49.869Z,33.02
2018-04-27T10:04:19.695Z,29.06
2018-04-27T10:06:48.766Z,30.10
2018-04-27T10:09:18.275Z,30.20
2018-04-27T10:11:47.343Z,27.79
2018-04-27T10:14:17.167Z,30.00
2018-04-27T10:16:46.190Z,27.67
2018-04-27T10:19:16.578Z,27.99
2018-04-27T10:21:45.634Z,29.23
2018-04-27T10:24:14.732Z,29.73
2018-04-27T10:26:43.783Z,28.00
2018-04-27T10:29:13.003Z,30.82
2018-04-27T10:34:18.337Z,26.40
2018-04-27T10:36:47.419Z,29.95
2018-04-27T10:39:21.828Z,28.04
2018-04-27T10:41:56.748Z,27.37
2018-04-27T10:44:26.227Z,28.69
2018-04-27T10:46:55.277Z,29.47
2018-04-27T10:52:00.115Z,28.25
2018-04-27T10:54:29.743Z,28.23
2018-04-27T10:56:58.777Z,26.16
2018-04-27T10:59:28.445Z,27.18
2018-04-27T11:01:57.479Z,26.53
2018-04-27T11:07:02.566Z,21.75
2018-04-27T11:09:31.938Z,22.77
2018-04-27T11:12:00.986Z,22.11
2018-04-27T11:14:30.919Z,25.31
2018-04-27T11:19:35.806Z,23.39
2018-04-27T11:22:05.126Z,25.16
2018-04-27T11:24:34.194Z,24.93
2018-04-27T11:27:03.296Z,27.16
2018-04-27T11:29:32.911Z,27.09
2018-04-27T11:32:01.946Z,23.78
2018-04-27T11:34:31.630Z,20.24
2018-04-27T11:37:00.674Z,19.85
2018-04-27T11:39:29.715Z,23.20
2018-04-27T11:41:58.780Z,20.17
2018-04-27T11:44:28.717Z,23.52
2018-04-27T11:46:59.582Z,23.04
2018-04-27T11:49:28.649Z,22.65
2018-04-27T11:51:57.698Z,22.53
2018-04-27T11:54:27.160Z,20.65
2018-04-27T11:56:56.199Z,21.29
2018-04-27T11:59:25.886Z,22.98
2018-04-27T12:01:54.954Z,22.33
2018-04-27T12:04:24.122Z,19.54
2018-04-27T12:06:54.126Z,20.58
2018-04-27T12:09:23.336Z,19.69
2018-04-27T12:11:52.396Z,21.01
2018-04-27T12:14:21.453Z,22.29
2018-04-27T12:16:50.509Z,20.19
2018-04-27T12:19:20.766Z,19.50
2018-04-27T12:21:49.937Z,22.10
2018-04-27T12:24:19.265Z,20.84
2018-04-27T12:26:48.305Z,18.15
2018-04-27T12:31:53.430Z,18.89
2018-04-27T12:34:22.377Z,16.99
2018-04-27T12:36:51.442Z,18.00
2018-04-27T12:39:20.503Z,18.20
2018-04-27T12:44:26.135Z,19.03
2018-04-27T12:46:55.229Z,19.84
2018-04-27T12:52:01.357Z,18.03
2018-04-27T12:54:30.425Z,20.34
2018-04-27T12:56:59.485Z,22.48
2018-04-27T12:59:28.556Z,20.70
2018-04-27T13:01:57.617Z,22.38
2018-04-27T13:04:26.909Z,20.59
2018-04-27T13:06:55.984Z,21.25
2018-04-27T13:09:26.012Z,20.07
2018-04-27T13:11:55.082Z,18.95
2018-04-27T13:14:24.882Z,19.75
2018-04-27T13:16:54.435Z,19.70
2018-04-27T13:19:23.485Z,19.57
2018-04-27T13:21:52.537Z,18.58
2018-04-27T13:24:21.880Z,16.66
2018-04-27T13:29:26.846Z,20.76
2018-04-27T13:31:56.041Z,21.79
2018-04-27T13:34:25.153Z,21.43
2018-04-27T13:36:54.167Z,20.75
2018-04-27T13:39:23.232Z,20.79
2018-04-27T13:41:52.271Z,21.37
2018-04-27T13:44:21.572Z,21.43
2018-04-27T13:46:50.681Z,21.63
2018-04-27T13:49:19.705Z,20.33
2018-04-27T13:51:49.334Z,20.10
2018-04-27T13:54:21.992Z,19.16
2018-04-27T13:56:51.022Z,18.68
2018-04-27T13:59:20.647Z,18.76
2018-04-27T14:01:49.691Z,18.50
2018-04-27T14:04:18.769Z,19.99
2018-04-27T14:06:49.423Z,18.82
2018-04-27T14:09:18.473Z,19.30
2018-04-27T14:11:48.663Z,20.66
2018-04-27T14:14:18.298Z,21.29
2018-04-27T14:16:47.403Z,19.35
2018-04-27T14:19:16.654Z,20.62
2018-04-27T14:21:45.796Z,20.20
2018-04-27T14:24:15.342Z,19.86
2018-04-27T14:26:44.423Z,21.41
2018-04-27T14:29:13.499Z,21.32
2018-04-27T14:31:42.882Z,22.97
2018-04-27T14:34:11.903Z,22.52
2018-04-27T14:36:41.151Z,20.26
2018-04-27T14:39:10.233Z,18.10
2018-04-27T14:41:39.323Z,18.55
2018-04-27T14:44:09.516Z,18.79
2018-04-27T14:46:38.659Z,18.19
2018-04-27T14:49:07.634Z,19.14
2018-04-27T14:56:49.789Z,17.96
2018-04-27T14:59:19.895Z,18.35
2018-04-27T15:01:49.870Z,21.05
2018-04-27T15:04:18.929Z,18.46
2018-04-27T15:06:47.999Z,17.25
2018-04-27T15:09:17.601Z,18.91
2018-04-27T15:14:22.891Z,17.60
2018-04-27T15:16:52.043Z,17.10
2018-04-27T15:19:21.130Z,16.98
2018-04-27T15:21:51.360Z,17.00
2018-04-27T15:24:20.424Z,16.47
2018-04-27T15:26:49.609Z,16.28
2018-04-27T15:31:55.134Z,15.18
2018-04-27T15:34:24.307Z,15.80
2018-04-27T15:36:53.447Z,15.61
2018-04-27T15:39:22.502Z,17.70
2018-04-27T15:41:52.358Z,18.45
2018-04-27T15:44:21.482Z,17.28
2018-04-27T15:46:50.544Z,17.55
2018-04-27T15:49:19.994Z,17.97
2018-04-27T15:51:49.032Z,19.88
2018-04-27T15:54:18.637Z,19.67
2018-04-27T15:56:47.698Z,18.51
2018-04-27T15:59:16.778Z,18.46
2018-04-27T16:01:46.443Z,19.06
2018-04-27T16:04:15.549Z,20.50
2018-04-27T16:06:44.688Z,20.62
2018-04-27T16:09:13.997Z,21.18
2018-04-27T16:14:18.904Z,21.94
2018-04-27T16:16:47.951Z,23.00
2018-04-27T16:19:17.980Z,23.42
2018-04-27T16:21:47.160Z,26.51
2018-04-27T16:24:16.311Z,29.18
2018-04-27T16:26:45.384Z,31.24
2018-04-27T16:29:14.485Z,31.26
2018-04-27T16:31:44.111Z,30.22
2018-04-27T16:34:13.523Z,30.17
2018-04-27T16:36:42.675Z,29.46
2018-04-27T16:39:12.337Z,34.22
2018-04-27T16:41:41.370Z,31.13
2018-04-27T16:44:10.851Z,32.16
2018-04-27T16:46:39.963Z,31.30
2018-04-27T16:49:09.026Z,31.77
2018-04-27T16:51:38.093Z,32.59
2018-04-27T16:54:07.245Z,32.25
2018-04-27T16:56:36.439Z,34.42
2018-04-27T16:59:05.505Z,35.23
2018-04-27T17:01:35.526Z,34.06
2018-04-27T17:04:04.882Z,36.22
2018-04-27T17:06:33.926Z,35.93
2018-04-27T17:09:02.993Z,36.49
2018-04-27T17:11:32.546Z,36.55
2018-04-27T17:14:01.609Z,36.15
2018-04-27T17:16:30.714Z,36.75
2018-04-27T17:19:00.658Z,41.73
2018-04-27T17:21:29.710Z,38.14
2018-04-27T17:23:58.796Z,38.44
2018-04-27T17:26:29.268Z,38.78
2018-04-27T17:28:58.277Z,39.42
2018-04-27T17:31:27.324Z,40.68
2018-04-27T17:33:57.128Z,43.52
2018-04-27T17:39:02.511Z,40.57
2018-04-27T17:41:31.563Z,40.47
2018-04-27T17:44:00.599Z,41.54
2018-04-27T17:46:30.024Z,41.39
2018-04-27T17:48:59.174Z,42.56
2018-04-27T17:54:04.048Z,44.55
2018-04-27T17:59:09.226Z,44.45
2018-04-27T18:01:38.274Z,44.76
2018-04-27T18:04:07.344Z,44.68
2018-04-27T18:06:36.398Z,45.33
2018-04-27T18:09:07.421Z,45.68
2018-04-27T18:11:37.613Z,45.14
2018-04-27T18:14:06.726Z,51.94
2018-04-27T18:16:35.876Z,52.35
2018-04-27T18:19:04.857Z,52.06
2018-04-27T18:21:33.962Z,49.70
2018-04-27T18:24:03.008Z,54.57
2018-04-27T18:26:32.394Z,50.25
2018-04-27T18:29:01.473Z,48.71
2018-04-27T18:31:30.839Z,51.71
2018-04-27T18:34:00.166Z,58.88
2018-04-27T18:36:29.236Z,55.00
2018-04-27T18:38:58.291Z,56.20
2018-04-27T18:41:27.366Z,56.26
2018-04-27T18:43:56.658Z,60.59
2018-04-27T18:46:25.726Z,56.19
2018-04-27T18:48:54.962Z,59.36
2018-04-27T18:51:24.269Z,57.83
2018-04-27T18:53:53.551Z,58.66
2018-04-27T18:56:23.442Z,61.25
2018-04-27T18:58:56.031Z,62.99
2018-04-27T19:01:25.889Z,59.36
2018-04-27T19:03:55.022Z,58.59
2018-04-27T19:06:24.262Z,61.18
2018-04-27T19:08:53.337Z,62.21
2018-04-27T19:11:22.385Z,64.05
2018-04-27T19:13:51.672Z,66.77
2018-04-27T19:16:20.791Z,65.23
2018-04-27T19:18:49.874Z,68.27
2018-04-27T19:21:19.769Z,66.97
2018-04-27T19:23:49.705Z,63.33
2018-04-27T19:26:20.693Z,62.05
2018-04-27T19:28:49.752Z,59.73
2018-04-27T19:31:18.964Z,66.46
2018-04-27T19:33:48.049Z,60.93
2018-04-27T19:36:17.124Z,64.51
2018-04-27T19:38:47.168Z,68.00
2018-04-27T19:41:16.261Z,67.94
2018-04-27T19:43:45.337Z,68.52
2018-04-27T19:48:50.190Z,70.22
2018-04-27T19:51:19.269Z,68.00
2018-04-27T19:53:48.614Z,66.72
2018-04-27T19:56:18.046Z,71.80
2018-04-27T19:58:47.106Z,72.93
2018-04-27T20:01:16.193Z,66.96
2018-04-27T20:03:45.377Z,69.21
2018-04-27T20:08:50.638Z,69.77
2018-04-27T20:11:20.117Z,64.80
2018-04-27T20:13:49.131Z,67.49
2018-04-27T20:16:35.954Z,67.48
2018-04-27T20:19:06.538Z,65.89
2018-04-27T20:21:35.615Z,70.22
2018-04-27T20:24:07.509Z,70.30
2018-04-27T20:26:36.594Z,69.94
2018-04-27T20:29:05.655Z,67.72
2018-04-27T20:31:34.882Z,67.28
2018-04-27T20:34:04.084Z,70.12
2018-04-27T20:36:33.146Z,69.36
2018-04-27T20:39:02.205Z,67.22
2018-04-27T20:41:31.585Z,65.94
2018-04-27T20:44:00.720Z,69.40
2018-04-27T20:46:29.847Z,71.07
2018-04-27T20:48:58.910Z,70.01
2018-04-27T20:51:28.138Z,69.03
2018-04-27T20:54:00.878Z,64.90
2018-04-27T20:59:05.708Z,65.10
2018-04-27T21:01:35.508Z,67.73
2018-04-27T21:04:04.743Z,72.91
2018-04-27T21:06:33.875Z,72.22
2018-04-27T21:09:02.910Z,71.44
2018-04-27T21:11:38.504Z,69.14
2018-04-27T21:14:07.745Z,72.32
2018-04-27T21:16:37.922Z,70.71
2018-04-27T21:19:07.165Z,69.62
2018-04-27T21:21:36.347Z,69.25
2018-04-27T21:24:05.429Z,72.13
2018-04-27T21:26:40.519Z,68.36
2018-04-27T21:29:09.697Z,68.45
2018-04-27T21:31:38.740Z,70.16
2018-04-27T21:34:07.840Z,67.47
2018-04-27T21:36:37.023Z,68.42
2018-04-27T21:39:23.889Z,68.42
2018-04-27T21:41:54.343Z,69.68
2018-04-27T21:44:35.103Z,69.78
2018-04-27T21:47:21.093Z,69.58
2018-04-27T21:49:51.022Z,70.91
2018-04-27T21:52:25.869Z,71.35
2018-04-27T21:54:54.965Z,73.20
2018-04-27T22:00:06.396Z,73.99
2018-04-27T22:06:03.171Z,72.92
2018-04-27T22:08:47.256Z,75.42
2018-04-27T22:17:02.315Z,74.70
2018-04-27T22:19:35.112Z,75.37
2018-04-27T22:22:04.234Z,76.92
2018-04-27T22:27:09.071Z,75.04
2018-04-27T22:29:40.164Z,73.91
2018-04-27T22:32:22.967Z,73.33
2018-04-27T22:34:55.842Z,77.76
2018-04-27T22:37:24.965Z,78.65
2018-04-27T22:40:15.538Z,80.10
2018-04-27T22:57:13.237Z,78.66
2018-04-27T22:59:42.985Z,77.95
2018-04-27T23:02:18.442Z,78.62
2018-04-27T23:04:57.407Z,79.33
2018-04-27T23:10:02.244Z,80.34
2018-04-27T23:12:34.117Z,78.91
2018-04-27T23:17:47.846Z,78.47
2018-04-27T23:20:27.165Z,79.45
2018-04-27T23:23:00.629Z,78.54
2018-04-27T23:25:43.435Z,80.82
2018-04-27T23:30:48.857Z,80.77
2018-04-27T23:35:53.613Z,79.51
2018-04-27T23:38:23.691Z,79.73
2018-04-27T23:40:57.562Z,79.39
2018-04-27T23:43:27.450Z,78.95
2018-04-27T23:45:58.162Z,78.62
2018-04-27T23:48:27.190Z,78.09
2018-04-27T23:50:58.309Z,80.72
2018-04-27T23:53:28.880Z,79.65
2018-04-27T23:55:58.561Z,81.11
2018-04-27T23:58:30.337Z,82.18
